Time;durP1;ratioP1;P1;durP2;ratioP2;P2;SDS_P1;SDS_P2;PMS_P1;PMS_P2;Temp;Humidity;BMP_temperature;BMP_pressure;BME280_temperature;BME280_humidity;BME280_pressure;Samples;Min_cycle;Max_cycle;Signal;HPM_P1;HPM_P2
2024/02/29 00:00:31;;;;;;;21.48;3.70;;;;;;;;;;5052736;28;20048;-72
2024/02/29 00:03:35;;;;;;;17.65;2.90;;;;;;;;;;5052716;28;20036;-72
2024/02/29 00:06:39;;;;;;;20.77;3.80;;;;;;;;;;5052219;28;20408;-72
2024/02/29 00:09:44;;;;;;;17.52;3.05;;;;;;;;;;5052746;28;20056;-71
2024/02/29 00:12:48;;;;;;;21.77;4.18;;;;;;;;;;5052521;28;20119;-71
2024/02/29 00:15:53;;;;;;;17.60;2.65;;;;;;;;;;5052789;28;20043;-71
2024/02/29 00:18:57;;;;;;;20.90;2.92;;;;;;;;;;5051854;28;20508;-71
2024/02/29 00:22:02;;;;;;;11.95;2.20;;;;;;;;;;5052351;28;20048;-72
2024/02/29 00:25:06;;;;;;;12.07;2.38;;;;;;;;;;5052613;28;20048;-71
2024/02/29 00:28:10;;;;;;;11.50;2.55;;;;;;;;;;5052108;28;20040;-72
2024/02/29 00:31:14;;;;;;;12.98;2.70;;;;;;;;;;5039751;28;20040;-71
2024/02/29 00:34:19;;;;;;;23.95;2.83;;;;;;;;;;5052215;28;20052;-72
2024/02/29 00:37:23;;;;;;;13.65;2.83;;;;;;;;;;5052112;28;20036;-72
2024/02/29 00:40:27;;;;;;;16.88;4.28;;;;;;;;;;5052004;28;20422;-72
2024/02/29 00:43:32;;;;;;;16.33;2.85;;;;;;;;;;5052349;28;20036;-72
2024/02/29 00:46:40;;;;;;;24.38;3.63;;;13.80;99.90;;;;;;5052204;28;20068;-72
2024/02/29 00:49:44;;;;;;;15.30;3.13;;;;;;;;;;5051327;28;20119;-72
2024/02/29 00:52:48;;;;;;;29.08;4.47;;;;;;;;;;5052043;28;20048;-72
2024/02/29 00:55:53;;;;;;;32.10;5.10;;;;;;;;;;5051527;28;20044;-71
2024/02/29 00:58:57;;;;;;;36.42;6.40;;;;;;;;;;5051807;28;20047;-71
2024/02/29 01:02:03;;;;;;;28.00;4.85;;;;;;;;;;5051691;28;20056;-71
2024/02/29 01:05:08;;;;;;;32.75;5.22;;;;;;;;;;5050888;28;20039;-71
2024/02/29 01:08:12;;;;;;;31.23;5.63;;;;;;;;;;5051533;28;20063;-71
2024/02/29 01:11:16;;;;;;;35.42;6.38;;;;;;;;;;5051278;28;20047;-71
2024/02/29 01:14:21;;;;;;;39.40;6.40;;;;;;;;;;5051245;28;20052;-70
2024/02/29 01:17:25;;;;;;;43.58;5.80;;;;;;;;;;5051526;28;20059;-71
2024/02/29 01:20:30;;;;;;;33.50;4.50;;;;;;;;;;5050952;28;20052;-71
2024/02/29 01:23:35;;;;;;;36.92;5.70;;;;;;;;;;5050440;28;20040;-71
2024/02/29 01:26:39;;;;;;;37.28;5.38;;;;;;;;;;5051310;28;20048;-71
2024/02/29 01:29:44;;;;;;;37.80;5.00;;;;;;;;;;5050907;28;20040;-71
2024/02/29 01:32:48;;;;;;;36.00;4.85;;;;;;;;;;5051033;28;20516;-71
2024/02/29 01:35:52;;;;;;;31.20;5.90;;;;;;;;;;5050865;28;20531;-71
2024/02/29 01:38:56;;;;;;;25.50;4.07;;;;;;;;;;5050230;28;20040;-71
2024/02/29 01:42:02;;;;;;;34.92;5.32;;;13.20;99.90;;;;;;5050729;28;20409;-71
2024/02/29 01:45:07;;;;;;;26.67;4.50;;;13.20;99.90;;;;;;5050730;28;20420;-71
2024/02/29 01:48:12;;;;;;;40.60;4.50;;;13.20;99.90;;;;;;5050911;28;20040;-71
2024/02/29 01:51:20;;;;;;;39.33;5.03;;;13.10;99.90;;;;;;5050831;28;20048;-71
2024/02/29 01:54:24;;;;;;;32.38;5.03;;;;;;;;;;5050553;28;20044;-71
2024/02/29 01:57:28;;;;;;;26.95;4.72;;;;;;;;;;5050321;28;20040;-72
2024/02/29 02:00:33;;;;;;;37.97;5.22;;;;;;;;;;5050134;28;20072;-71
2024/02/29 02:03:38;;;;;;;35.58;5.22;;;12.90;99.90;;;;;;5050625;28;20060;-71
2024/02/29 02:06:43;;;;;;;34.75;4.90;;;;;;;;;;5049563;28;20052;-71
2024/02/29 02:09:47;;;;;;;35.53;5.88;;;;;;;;;;5050715;28;20404;-70
2024/02/29 02:12:51;;;;;;;33.95;4.45;;;;;;;;;;5050300;28;20052;-71
2024/02/29 02:15:55;;;;;;;33.72;5.13;;;;;;;;;;5050539;28;20052;-71
2024/02/29 02:18:59;;;;;;;37.58;5.40;;;;;;;;;;5050722;28;20516;-71
2024/02/29 02:22:04;;;;;;;33.40;4.07;;;;;;;;;;5050435;28;20036;-71
2024/02/29 02:25:08;;;;;;;32.25;5.57;;;;;;;;;;5050472;28;20115;-71
2024/02/29 02:28:12;;;;;;;30.20;4.72;;;;;;;;;;5050703;28;20039;-70
2024/02/29 02:31:16;;;;;;;30.08;4.80;;;;;;;;;;5050526;28;20068;-71
2024/02/29 02:34:21;;;;;;;27.80;4.00;;;;;;;;;;5050373;28;20056;-71
2024/02/29 02:37:25;;;;;;;27.48;5.00;;;;;;;;;;5050144;28;20040;-71
2024/02/29 02:40:29;;;;;;;36.35;6.47;;;12.90;99.90;;;;;;5050398;28;20587;-71
2024/02/29 02:43:33;;;;;;;32.83;6.45;;;12.90;99.90;;;;;;5050480;28;20048;-71
2024/02/29 02:46:37;;;;;;;43.78;5.65;;;12.50;99.90;;;;;;5050057;28;20396;-71
2024/02/29 02:49:42;;;;;;;33.75;5.88;;;;;;;;;;5050292;28;20048;-70
2024/02/29 02:52:46;;;;;;;39.47;4.72;;;12.50;99.90;;;;;;5053851;28;20052;-70
2024/02/29 02:55:50;;;;;;;39.83;4.75;;;12.30;99.90;;;;;;5053854;28;20051;-70
2024/02/29 02:58:53;;;;;;;37.88;5.57;;;12.50;99.90;;;;;;5053210;28;20469;-70
2024/02/29 03:01:58;;;;;;;31.45;5.85;;;11.40;99.90;;;;;;5054080;28;20056;-70
2024/02/29 03:05:01;;;;;;;33.47;4.95;;;9.80;99.90;;;;;;5052633;28;20044;-70
2024/02/29 03:08:05;;;;;;;32.70;5.15;;;12.50;99.90;;;;;;5054028;28;20044;-71
2024/02/29 03:11:09;;;;;;;36.38;4.90;;;12.60;99.90;;;;;;5053789;28;20072;-70
2024/02/29 03:14:15;;;;;;;27.52;4.32;;;12.10;99.90;;;;;;5053688;28;20071;-70
2024/02/29 03:17:19;;;;;;;32.03;4.82;;;12.40;99.90;;;;;;5053935;28;20044;-70
2024/02/29 03:20:23;;;;;;;41.35;4.80;;;;;;;;;;5053290;28;20515;-70
2024/02/29 03:23:27;;;;;;;32.47;5.00;;;12.50;99.90;;;;;;5053285;28;20389;-70
2024/02/29 03:26:31;;;;;;;29.88;5.53;;;12.00;99.90;;;;;;5053686;28;20052;-70
2024/02/29 03:29:35;;;;;;;34.85;6.05;;;12.30;99.90;;;;;;5053506;28;20508;-70
2024/02/29 03:32:39;;;;;;;33.65;4.93;;;13.70;99.90;;;;;;5053097;28;20056;-70
2024/02/29 03:35:43;;;;;;;33.60;5.00;;;13.50;99.90;;;;;;5053505;28;20060;-70
2024/02/29 03:38:47;;;;;;;33.45;4.38;;;11.90;99.90;;;;;;5052662;28;20508;-70
2024/02/29 03:41:51;;;;;;;30.85;4.50;;;13.40;99.90;;;;;;5053943;28;20515;-70
2024/02/29 03:44:54;;;;;;;31.55;4.60;;;11.90;99.90;;;;;;5053130;28;20499;-70
2024/02/29 03:47:58;;;;;;;28.25;4.35;;;11.90;99.90;;;;;;5053304;28;20052;-70
2024/02/29 03:51:02;;;;;;;29.80;4.32;;;13.90;99.90;;;;;;5052940;28;20040;-70
2024/02/29 03:54:06;;;;;;;27.83;4.38;;;13.60;99.90;;;;;;5053063;28;20044;-70
2024/02/29 03:57:10;;;;;;;35.08;4.75;;;13.80;99.90;;;;;;5053036;28;20051;-70
2024/02/29 04:00:15;;;;;;;25.80;5.65;;;13.50;99.90;;;;;;5052621;28;20515;-70
2024/02/29 04:03:19;;;;;;;28.67;5.20;;;12.30;99.90;;;;;;5052349;28;20060;-70
2024/02/29 04:06:24;;;;;;;24.65;4.57;;;11.90;99.90;;;;;;5052766;28;20052;-70
2024/02/29 04:09:29;;;;;;;32.10;5.45;;;14.00;99.90;;;;;;5052485;28;20048;-70
2024/02/29 04:12:33;;;;;;;28.42;5.13;;;12.10;99.90;;;;;;5052860;28;20040;-70
2024/02/29 04:15:37;;;;;;;23.42;5.60;;;12.20;99.90;;;;;;5052396;28;20060;-70
2024/02/29 04:18:41;;;;;;;21.77;4.15;;;11.80;99.90;;;;;;5051663;28;20063;-70
2024/02/29 04:21:45;;;;;;;27.48;4.38;;;12.10;99.90;;;;;;5052663;28;20051;-70
2024/02/29 04:24:51;;;;;;;31.17;3.55;;;12.20;99.90;;;;;;5051599;28;20040;-70
2024/02/29 04:27:55;;;;;;;25.95;5.07;;;12.00;99.90;;;;;;5052346;28;20056;-70
2024/02/29 04:30:59;;;;;;;23.65;3.95;;;12.30;99.90;;;;;;5052313;28;20036;-70
2024/02/29 04:34:03;;;;;;;12.50;2.80;;;12.30;99.90;;;;;;5052092;28;20213;-70
2024/02/29 04:37:07;;;;;;;15.32;3.10;;;12.30;99.90;;;;;;5052007;28;20520;-70
2024/02/29 04:40:11;;;;;;;27.00;3.58;;;12.20;99.90;;;;;;5052089;28;20044;-70
2024/02/29 04:43:16;;;;;;;16.95;3.03;;;12.20;99.90;;;;;;5051758;28;20060;-70
2024/02/29 04:46:20;;;;;;;24.27;3.28;;;12.20;99.90;;;;;;5051993;28;20036;-70
2024/02/29 04:49:24;;;;;;;20.15;2.70;;;11.80;99.90;;;;;;5052010;28;20040;-70
2024/02/29 04:52:27;;;;;;;18.58;3.78;;;12.00;99.90;;;;;;5051806;28;20048;-70
2024/02/29 04:55:34;;;;;;;21.85;2.63;;;11.70;99.90;;;;;;5051794;28;20622;-70
2024/02/29 04:58:38;;;;;;;15.15;2.97;;;12.00;99.90;;;;;;5051940;28;20036;-70
2024/02/29 05:01:43;;;;;;;15.73;2.60;;;12.10;99.90;;;;;;5051638;28;20558;-70
2024/02/29 05:04:47;;;;;;;16.52;2.42;;;12.00;99.90;;;;;;5051796;28;20044;-70
2024/02/29 05:07:52;;;;;;;17.35;3.08;;;12.20;99.90;;;;;;5051256;28;20047;-70
2024/02/29 05:10:57;;;;;;;20.88;3.15;;;12.20;99.90;;;;;;5051389;28;20044;-70
2024/02/29 05:14:00;;;;;;;9.57;2.25;;;13.70;99.90;;;;;;5050580;28;20369;-70
2024/02/29 05:17:04;;;;;;;17.75;2.10;;;13.30;99.90;;;;;;5051390;28;20056;-70
2024/02/29 05:20:09;;;;;;;14.18;3.00;;;11.00;99.90;;;;;;5050598;28;20048;-70
2024/02/29 05:23:12;;;;;;;16.75;2.33;;;11.60;99.90;;;;;;5051333;28;20401;-70
2024/02/29 05:26:18;;;;;;;20.42;3.30;;;10.90;99.90;;;;;;5050401;28;20511;-70
2024/02/29 05:29:22;;;;;;;16.27;2.92;;;9.90;99.90;;;;;;5051380;28;20393;-70
2024/02/29 05:32:27;;;;;;;14.00;3.00;;;;;;;;;;5051292;28;20044;-70
2024/02/29 05:35:34;;;;;;;20.13;3.35;;;9.80;99.90;;;;;;5050016;28;20397;-70
2024/02/29 05:38:38;;;;;;;16.73;3.47;;;11.50;99.90;;;;;;5051399;28;20064;-70
2024/02/29 05:41:42;;;;;;;17.90;3.40;;;11.40;99.90;;;;;;5050216;28;20052;-70
2024/02/29 05:44:46;;;;;;;18.15;3.03;;;11.40;99.90;;;;;;5051046;28;20040;-70
2024/02/29 05:47:50;;;;;;;23.63;2.85;;;11.10;99.90;;;;;;5051166;28;20056;-70
2024/02/29 05:50:56;;;;;;;12.63;2.50;;;13.20;99.90;;;;;;5050003;28;20043;-70
2024/02/29 05:54:00;;;;;;;12.13;1.92;;;;;;;;;;5051044;28;20052;-70
2024/02/29 05:57:04;;;;;;;9.35;1.75;;;13.70;99.90;;;;;;5051066;28;20507;-70
2024/02/29 06:00:08;;;;;;;14.27;2.30;;;13.50;99.90;;;;;;5050610;28;20052;-70
2024/02/29 06:03:15;;;;;;;10.60;2.05;;;11.40;99.90;;;;;;5051146;28;20040;-69
2024/02/29 06:06:19;;;;;;;13.57;2.58;;;11.40;99.90;;;;;;5050897;28;20044;-71
2024/02/29 06:09:24;;;;;;;10.52;2.33;;;11.50;99.90;;;;;;5050798;28;20055;-70
2024/02/29 06:12:30;;;;;;;10.55;2.15;;;11.00;99.90;;;;;;5050267;28;20043;-70
2024/02/29 06:15:34;;;;;;;12.02;2.47;;;11.10;99.90;;;;;;5050883;28;20048;-70
2024/02/29 06:18:38;;;;;;;9.15;2.05;;;11.40;99.90;;;;;;5050349;28;20055;-71
2024/02/29 06:21:42;;;;;;;13.48;1.73;;;11.30;99.90;;;;;;5050878;28;20044;-69
2024/02/29 06:24:46;;;;;;;10.05;1.85;;;11.50;99.90;;;;;;5051628;28;20044;-69
2024/02/29 06:27:50;;;;;;;8.25;1.80;;;11.70;99.90;;;;;;5054723;28;20044;-69
2024/02/29 06:30:54;;;;;;;8.73;2.22;;;11.90;99.90;;;;;;5054879;28;20048;-70
2024/02/29 06:33:58;;;;;;;13.88;2.50;;;11.90;99.90;;;;;;5054964;28;20508;-69
2024/02/29 06:37:02;;;;;;;12.50;3.42;;;12.00;99.90;;;;;;5054598;28;20056;-69
2024/02/29 06:40:10;;;;;;;11.40;2.75;;;12.00;99.90;;;;;;5054717;28;20048;-68
2024/02/29 06:43:14;;;;;;;14.23;2.70;;;12.00;99.90;;;;;;5054728;28;20048;-69
2024/02/29 06:46:18;;;;;;;12.40;2.83;;;12.00;99.90;;;;;;5054554;28;20044;-68
2024/02/29 06:49:23;;;;;;;12.10;3.05;;;12.20;99.90;;;;;;5054559;28;20072;-69
2024/02/29 06:52:28;;;;;;;14.80;3.15;;;12.20;99.90;;;;;;5054645;28;20060;-69
2024/02/29 06:55:33;;;;;;;16.45;2.95;;;12.20;99.90;;;;;;5054132;28;20051;-68
2024/02/29 06:58:37;;;;;;;9.57;3.20;;;12.20;99.90;;;;;;5053860;28;20036;-69
2024/02/29 07:01:41;;;;;;;12.10;2.65;;;12.20;99.90;;;;;;5054323;28;20060;-69
2024/02/29 07:04:45;;;;;;;19.65;4.20;;;12.20;99.90;;;;;;5053823;28;20361;-69
2024/02/29 07:07:52;;;;;;;13.95;3.22;;;11.20;99.90;;;;;;5054149;28;20043;-68
2024/02/29 07:10:56;;;;;;;14.77;2.55;;;12.20;99.90;;;;;;5054021;28;20048;-72
2024/02/29 07:14:00;;;;;;;19.30;3.05;;;12.10;99.90;;;;;;5053499;28;20047;-71
2024/02/29 07:17:05;;;;;;;12.20;2.90;;;;;;;;;;5053755;28;20044;-72
2024/02/29 07:20:13;;;;;;;17.77;3.17;;;12.20;99.90;;;;;;5054590;28;20039;-71
2024/02/29 07:23:18;;;;;;;12.65;2.85;;;;;;;;;;5053989;28;20055;-70
2024/02/29 07:26:22;;;;;;;19.48;4.18;;;;;;;;;;5053915;28;20424;-67
2024/02/29 07:29:27;;;;;;;22.13;5.72;;;;;;;;;;5053732;28;20044;-66
2024/02/29 07:32:31;;;;;;;18.40;4.28;;;;;;;;;;5053620;28;20792;-68
2024/02/29 07:35:35;;;;;;;21.60;4.97;;;;;;;;;;5053450;28;20409;-70
2024/02/29 07:38:40;;;;;;;12.80;4.60;;;;;;;;;;5052229;28;20044;-67
2024/02/29 07:41:45;;;;;;;10.82;4.00;;;;;;;;;;5053420;28;20048;-70
2024/02/29 07:44:48;;;;;;;16.88;5.03;;;;;;;;;;5053698;28;20048;-69
2024/02/29 07:47:53;;;;;;;18.52;4.30;;;;;;;;;;5052967;28;20207;-69
2024/02/29 07:50:57;;;;;;;16.63;3.80;;;;;;;;;;5053183;28;20044;-69
2024/02/29 07:54:02;;;;;;;15.30;3.00;;;;;;;;;;5052617;28;20048;-69
2024/02/29 07:57:06;;;;;;;14.85;4.00;;;;;;;;;;5053029;28;20052;-67
2024/02/29 08:00:11;;;;;;;14.77;3.88;;;13.00;99.90;;;;;;5052628;28;20385;-72
2024/02/29 08:03:16;;;;;;;17.00;3.75;;;;;;;;;;5053221;28;20044;-71
2024/02/29 08:06:20;;;;;;;27.10;5.78;;;;;;;;;;5053003;28;20048;-67
2024/02/29 08:09:25;;;;;;;18.13;4.05;;;;;;;;;;5052499;28;20052;-67
2024/02/29 08:12:29;;;;;;;24.58;4.88;;;;;;;;;;5051960;28;20044;-68
2024/02/29 08:15:34;;;;;;;15.68;5.07;;;;;;;;;;5054067;28;20064;-68
2024/02/29 08:18:39;;;;;;;10.10;3.78;;;;;;;;;;5052983;28;20508;-68
2024/02/29 08:21:43;;;;;;;17.17;4.32;;;;;;;;;;5052522;28;20055;-68
2024/02/29 08:24:47;;;;;;;15.85;3.72;;;;;;;;;;5052792;28;20143;-67
2024/02/29 08:27:51;;;;;;;13.43;3.08;;;;;;;;;;5052351;28;20048;-68
2024/02/29 08:30:55;;;;;;;21.35;4.90;;;;;;;;;;5052119;28;20052;-68
2024/02/29 08:34:00;;;;;;;17.63;3.60;;;;;;;;;;5052094;28;20048;-68
2024/02/29 08:37:04;;;;;;;20.42;4.07;;;;;;;;;;5052212;28;20051;-68
2024/02/29 08:40:09;;;;;;;20.20;3.80;;;;;;;;;;5051977;28;20112;-68
2024/02/29 08:43:12;;;;;;;28.92;4.63;;;;;;;;;;5052135;28;20044;-68
2024/02/29 08:46:17;;;;;;;26.35;4.82;;;;;;;;;;5052020;28;20056;-69
2024/02/29 08:49:21;;;;;;;25.75;4.75;;;;;;;;;;5051995;28;20045;-69
2024/02/29 08:52:26;;;;;;;20.73;4.57;;;;;;;;;;5051861;28;20048;-68
2024/02/29 08:55:30;;;;;;;30.55;4.40;;;;;;;;;;5051729;28;20056;-68
2024/02/29 08:58:34;;;;;;;15.10;3.55;;;;;;;;;;5051497;28;20044;-67
2024/02/29 09:01:39;;;;;;;30.67;4.18;;;;;;;;;;5051797;28;20052;-68
2024/02/29 09:04:43;;;;;;;24.25;3.30;;;;;;;;;;5051302;28;20536;-69
2024/02/29 09:07:48;;;;;;;32.53;4.55;;;;;;;;;;5050392;28;20068;-69
2024/02/29 09:10:52;;;;;;;23.17;3.85;;;;;;;;;;5051351;28;20051;-68
2024/02/29 09:13:56;;;;;;;23.05;3.90;;;;;;;;;;5051401;28;20039;-68
2024/02/29 09:17:01;;;;;;;34.20;7.72;;;;;;;;;;5051173;28;20047;-68
2024/02/29 09:20:06;;;;;;;23.98;3.75;;;;;;;;;;5050821;28;20040;-66
2024/02/29 09:23:10;;;;;;;17.17;3.05;;;;;;;;;;5051413;28;20044;-68
2024/02/29 09:26:16;;;;;;;24.80;3.47;;;;;;;;;;5051152;28;20039;-67
2024/02/29 09:29:21;;;;;;;26.45;3.88;;;;;;;;;;5050796;28;20040;-68
2024/02/29 09:32:25;;;;;;;22.92;3.25;;;;;;;;;;5050356;28;20048;-68
2024/02/29 09:35:29;;;;;;;43.75;4.32;;;;;;;;;;5050901;28;20056;-69
2024/02/29 09:38:34;;;;;;;21.30;4.25;;;;;;;;;;5050927;28;20056;-66
2024/02/29 09:41:39;;;;;;;33.03;4.35;;;;;;;;;;5050575;28;20039;-69
2024/02/29 09:44:43;;;;;;;16.52;3.30;;;15.00;94.90;;;;;;5051147;28;20048;-68
2024/02/29 09:47:48;;;;;;;10.50;2.38;;;;;;;;;;5050395;28;20048;-68
2024/02/29 09:50:52;;;;;;;14.15;3.15;;;16.50;95.10;;;;;;5050449;28;20514;-68
2024/02/29 09:53:58;;;;;;;17.02;3.55;;;;;;;;;;5050557;28;20039;-67
2024/02/29 09:57:05;;;;;;;12.93;2.38;;;;;;;;;;5050443;28;20067;-68
2024/02/29 10:00:10;;;;;;;18.23;2.72;;;;;;;;;;5049888;28;20541;-68
2024/02/29 10:03:16;;;;;;;13.88;2.60;;;;;;;;;;5050703;28;20054;-67
2024/02/29 10:06:21;;;;;;;15.50;3.17;;;;;;;;;;5050114;28;20507;-70
2024/02/29 10:09:27;;;;;;;15.55;2.85;;;;;;;;;;5050578;28;20052;-68
2024/02/29 10:12:31;;;;;;;18.50;2.50;;;;;;;;;;5050595;28;20147;-67
2024/02/29 10:15:36;;;;;;;31.98;4.20;;;;;;;;;;5050131;28;20052;-67
2024/02/29 10:18:40;;;;;;;32.03;4.60;;;;;;;;;;5050477;28;20048;-67
2024/02/29 10:21:45;;;;;;;18.77;2.92;;;;;;;;;;5050333;28;20144;-68
2024/02/29 10:24:52;;;;;;;19.27;3.30;;;16.60;93.60;;;;;;5050117;28;20393;-66
2024/02/29 10:28:03;;;;;;;14.98;2.78;;;17.40;93.90;;;;;;5050430;28;20036;-71
2024/02/29 10:31:07;;;;;;;15.65;3.10;;;17.60;93.90;;;;;;5050442;28;20048;-69
2024/02/29 10:34:16;;;;;;;19.42;2.20;;;18.20;93.80;;;;;;5050399;28;20048;-68
2024/02/29 10:37:20;;;;;;;19.08;2.20;;;;;;;;;;5050468;28;20524;-64
2024/02/29 10:40:24;;;;;;;21.98;7.63;;;;;;;;;;5050071;28;20048;-65
2024/02/29 10:43:31;;;;;;;21.35;7.13;;;;;;;;;;5049867;28;20048;-66
2024/02/29 10:46:41;;;;;;;20.73;4.88;;;20.20;94.00;;;;;;5050082;28;20072;-68
2024/02/29 10:49:46;;;;;;;24.70;3.88;;;18.30;91.90;;;;;;5049815;28;20071;-69
2024/02/29 10:52:54;;;;;;;18.23;2.95;;;;;;;;;;5050403;28;20051;-67
2024/02/29 10:56:03;;;;;;;13.70;2.55;;;;;;;;;;5049904;28;20080;-68
2024/02/29 10:59:07;;;;;;;19.23;3.08;;;;;;;;;;5049942;28;20040;-69
2024/02/29 11:02:11;;;;;;;15.88;3.05;;;;;;;;;;5050182;28;20064;-67
2024/02/29 11:05:17;;;;;;;15.45;2.80;;;18.40;91.50;;;;;;5050157;28;20059;-69
2024/02/29 11:08:21;;;;;;;19.92;3.38;;;;;;;;;;5050096;28;20499;-68
2024/02/29 11:11:26;;;;;;;17.75;2.85;;;18.30;89.10;;;;;;5049880;28;20040;-68
2024/02/29 11:14:35;;;;;;;16.52;3.55;;;18.50;89.40;;;;;;5053116;28;20067;-66
2024/02/29 11:17:41;;;;;;;22.17;4.10;;;;;;;;;;5053184;28;20044;-69
2024/02/29 11:20:45;;;;;;;12.48;3.63;;;;;;;;;;5052932;28;20108;-67
2024/02/29 11:23:49;;;;;;;19.95;3.70;;;;;;;;;;5052950;28;20049;-67
2024/02/29 11:26:55;;;;;;;29.25;3.47;;;;;;;;;;5053097;28;20036;-68
2024/02/29 11:30:00;;;;;;;22.02;3.53;;;;;;;;;;5053095;28;20602;-66
2024/02/29 11:33:10;;;;;;;28.95;3.65;;;20.00;87.30;;;;;;5053017;28;20044;-68
2024/02/29 11:36:15;;;;;;;18.83;3.90;;;;;;;;;;5052708;28;20071;-69
2024/02/29 11:39:22;;;;;;;18.13;4.03;;;;;;;;;;5052861;28;20044;-69
2024/02/29 11:42:27;;;;;;;18.33;3.50;;;;;;;;;;5053043;28;20063;-70
2024/02/29 11:45:31;;;;;;;24.10;5.35;;;;;;;;;;5052925;28;20057;-70
2024/02/29 11:48:35;;;;;;;18.50;4.07;;;;;;;;;;5052926;28;20048;-67
2024/02/29 11:51:40;;;;;;;20.63;3.67;;;;;;;;;;5053068;28;20048;-68
2024/02/29 11:54:44;;;;;;;18.08;2.92;;;;;;;;;;5052911;28;20048;-67
2024/02/29 11:57:48;;;;;;;21.30;3.13;;;;;;;;;;5052680;28;20382;-67
2024/02/29 12:00:54;;;;;;;15.15;2.60;;;18.40;86.50;;;;;;5052627;28;20052;-67
2024/02/29 12:03:58;;;;;;;23.77;3.58;;;;;;;;;;5051873;28;20065;-67
2024/02/29 12:07:03;;;;;;;20.15;3.22;;;;;;;;;;5052788;28;20389;-67
2024/02/29 12:10:09;;;;;;;35.47;4.30;;;;;;;;;;5052384;28;20056;-66
2024/02/29 12:13:15;;;;;;;18.75;2.75;;;;;;;;;;5052517;28;20044;-67
2024/02/29 12:16:19;;;;;;;22.73;3.50;;;;;;;;;;5052354;28;20052;-67
2024/02/29 12:19:24;;;;;;;22.75;3.95;;;;;;;;;;5052160;28;20405;-67
2024/02/29 12:22:28;;;;;;;26.48;3.55;;;;;;;;;;5051961;28;20044;-66
2024/02/29 12:25:33;;;;;;;21.98;3.38;;;;;;;;;;5052370;28;20073;-67
2024/02/29 12:28:38;;;;;;;16.30;3.25;;;;;;;;;;5052334;28;20397;-67
2024/02/29 12:31:42;;;;;;;16.40;2.55;;;;;;;;;;5052042;28;20067;-67
2024/02/29 12:34:47;;;;;;;20.02;3.60;;;;;;;;;;5051920;28;20051;-66
2024/02/29 12:37:51;;;;;;;15.38;2.42;;;;;;;;;;5052226;28;20063;-67
2024/02/29 12:40:56;;;;;;;29.38;3.85;;;;;;;;;;5052323;28;20040;-66
2024/02/29 12:44:04;;;;;;;17.48;4.38;;;16.90;86.90;;;;;;5051737;28;20488;-67
2024/02/29 12:47:09;;;;;;;23.75;3.60;;;;;;;;;;5050744;28;20052;-67
2024/02/29 12:50:13;;;;;;;18.00;4.00;;;;;;;;;;5051572;28;20397;-67
2024/02/29 12:53:18;;;;;;;23.63;3.38;;;;;;;;;;5051965;28;20539;-67
2024/02/29 12:56:22;;;;;;;29.00;4.05;;;;;;;;;;5051795;28;20068;-67
2024/02/29 12:59:26;;;;;;;38.95;4.38;;;;;;;;;;5051263;28;20036;-67
2024/02/29 13:02:30;;;;;;;12.95;3.15;;;;;;;;;;5051707;28;20056;-67
2024/02/29 13:05:34;;;;;;;14.63;2.78;;;;;;;;;;5051914;28;20044;-68
2024/02/29 13:08:38;;;;;;;19.95;3.55;;;;;;;;;;5051527;28;20048;-67
2024/02/29 13:11:43;;;;;;;20.33;3.38;;;;;;;;;;5050822;28;20039;-67
2024/02/29 13:14:47;;;;;;;19.35;3.38;;;;;;;;;;5051451;28;20044;-66
2024/02/29 13:17:52;;;;;;;25.92;4.57;;;;;;;;;;5051712;28;20060;-67
2024/02/29 13:20:56;;;;;;;23.23;3.60;;;;;;;;;;5050324;28;20044;-67
2024/02/29 13:24:00;;;;;;;24.48;4.35;;;;;;;;;;5051430;28;20059;-70
2024/02/29 13:27:05;;;;;;;24.13;3.53;;;;;;;;;;5050889;28;20044;-70
2024/02/29 13:30:09;;;;;;;17.33;3.53;;;;;;;;;;5051198;28;20056;-71
2024/02/29 13:33:15;;;;;;;14.80;2.88;;;;;;;;;;5051086;28;20048;-69
2024/02/29 13:36:20;;;;;;;17.13;3.20;;;;;;;;;;5050561;28;20056;-70
2024/02/29 13:39:24;;;;;;;33.53;4.28;;;;;;;;;;5051157;28;20048;-70
2024/02/29 13:42:29;;;;;;;19.30;3.53;;;;;;;;;;5050997;28;20508;-67
2024/02/29 13:45:37;;;;;;;18.90;4.13;;;;;;;;;;5051063;28;20040;-70
2024/02/29 13:48:45;;;;;;;19.80;4.47;;;16.50;87.40;;;;;;5050741;28;20645;-69
2024/02/29 13:51:50;;;;;;;34.67;5.90;;;;;;;;;;5050950;28;20044;-73
2024/02/29 13:54:54;;;;;;;24.75;5.10;;;;;;;;;;5049827;28;20048;-68
2024/02/29 13:57:58;;;;;;;21.20;5.30;;;;;;;;;;5050617;28;20043;-68
2024/02/29 14:01:03;;;;;;;27.08;4.38;;;;;;;;;;5050353;28;20409;-68
2024/02/29 14:04:08;;;;;;;26.00;4.55;;;;;;;;;;5050674;28;20044;-68
2024/02/29 14:07:12;;;;;;;34.90;4.95;;;;;;;;;;5050759;28;20044;-67
2024/02/29 14:10:16;;;;;;;21.73;3.95;;;;;;;;;;5050856;28;20360;-68
2024/02/29 14:13:20;;;;;;;32.05;4.85;;;;;;;;;;5050717;28;20048;-70
2024/02/29 14:16:25;;;;;;;29.15;4.38;;;;;;;;;;5050514;28;20052;-68
2024/02/29 14:19:29;;;;;;;25.35;3.80;;;;;;;;;;5050361;28;20044;-68
2024/02/29 14:22:34;;;;;;;29.02;4.43;;;;;;;;;;5050746;28;20044;-68
2024/02/29 14:25:38;;;;;;;27.23;4.20;;;;;;;;;;5050642;28;20051;-68
2024/02/29 14:28:43;;;;;;;29.65;3.85;;;17.60;89.40;;;;;;5049230;28;20052;-70
2024/02/29 14:31:48;;;;;;;20.90;4.15;;;;;;;;;;5050265;28;20055;-69
2024/02/29 14:34:53;;;;;;;32.28;4.13;;;;;;;;;;5050263;28;20393;-68
2024/02/29 14:37:57;;;;;;;19.55;3.65;;;;;;;;;;5050479;28;20056;-68
2024/02/29 14:41:02;;;;;;;18.75;3.65;;;;;;;;;;5050175;28;20047;-67
2024/02/29 14:44:06;;;;;;;32.45;4.55;;;;;;;;;;5050294;28;20401;-69
2024/02/29 14:47:10;;;;;;;18.30;3.60;;;;;;;;;;5053137;28;20048;-68
2024/02/29 14:50:15;;;;;;;33.95;4.57;;;;;;;;;;5052087;28;20044;-68
2024/02/29 14:53:19;;;;;;;24.75;4.53;;;;;;;;;;5053481;28;20447;-67
2024/02/29 14:56:24;;;;;;;24.17;4.20;;;;;;;;;;5053479;28;20056;-68
2024/02/29 14:59:28;;;;;;;25.20;6.75;;;;;;;;;;5053041;28;20056;-68
2024/02/29 15:02:33;;;;;;;36.67;6.68;;;;;;;;;;5053573;28;20503;-67
2024/02/29 15:05:38;;;;;;;38.67;7.28;;;;;;;;;;5052945;28;20123;-68
2024/02/29 15:08:42;;;;;;;32.08;5.15;;;;;;;;;;5053552;28;20479;-68
2024/02/29 15:11:47;;;;;;;39.28;5.55;;;;;;;;;;5053759;28;20060;-69
2024/02/29 15:14:51;;;;;;;33.95;4.05;;;;;;;;;;5053765;28;20044;-69
2024/02/29 15:17:55;;;;;;;42.15;6.60;;;;;;;;;;5053569;28;20392;-68
2024/02/29 15:21:00;;;;;;;42.72;4.45;;;;;;;;;;5053719;28;20040;-69
2024/02/29 15:24:04;;;;;;;26.77;4.65;;;;;;;;;;5053339;28;20040;-68
2024/02/29 15:27:09;;;;;;;24.10;3.47;;;;;;;;;;5052804;28;20071;-69
2024/02/29 15:30:13;;;;;;;42.30;5.07;;;;;;;;;;5052973;28;20036;-68
2024/02/29 15:33:20;;;;;;;31.38;4.30;;;;;;;;;;5052998;28;20068;-68
2024/02/29 15:36:24;;;;;;;27.33;4.82;;;17.20;90.20;;;;;;5053012;28;20409;-69
2024/02/29 15:39:28;;;;;;;38.30;5.70;;;;;;;;;;5053200;28;20040;-69
2024/02/29 15:42:33;;;;;;;37.45;4.35;;;;;;;;;;5052963;28;20040;-68
2024/02/29 15:45:37;;;;;;;43.92;5.53;;;;;;;;;;5052915;28;20528;-68
2024/02/29 15:48:42;;;;;;;26.88;4.43;;;;;;;;;;5053139;28;20052;-68
2024/02/29 15:51:47;;;;;;;33.35;4.22;;;;;;;;;;5052299;28;20040;-68
2024/02/29 15:54:51;;;;;;;36.10;5.32;;;;;;;;;;5052148;28;20040;-67
2024/02/29 15:57:55;;;;;;;50.20;5.70;;;;;;;;;;5051704;28;20044;-66
2024/02/29 16:01:00;;;;;;;41.90;5.88;;;;;;;;;;5052515;28;20067;-68
2024/02/29 16:04:04;;;;;;;47.17;7.15;;;;;;;;;;5052562;28;20068;-69
2024/02/29 16:07:08;;;;;;;35.95;6.50;;;;;;;;;;5052639;28;20040;-68
2024/02/29 16:10:12;;;;;;;39.05;6.68;;;;;;;;;;5051639;28;20053;-68
2024/02/29 16:13:18;;;;;;;43.08;7.88;;;;;;;;;;5052443;28;20397;-67
2024/02/29 16:16:23;;;;;;;47.80;8.05;;;;;;;;;;5052261;28;20048;-67
2024/02/29 16:19:28;;;;;;;34.80;7.85;;;;;;;;;;5052516;28;20048;-67
2024/02/29 16:22:33;;;;;;;49.95;7.65;;;;;;;;;;5052314;28;20052;-66
2024/02/29 16:25:37;;;;;;;48.97;8.15;;;;;;;;;;5052223;28;20044;-67
2024/02/29 16:28:42;;;;;;;44.78;8.55;;;;;;;;;;5052219;28;20186;-71
2024/02/29 16:31:47;;;;;;;50.70;10.18;;;;;;;;;;5052204;28;20047;-68
2024/02/29 16:34:52;;;;;;;44.08;10.15;;;;;;;;;;5051989;28;20056;-69
2024/02/29 16:37:57;;;;;;;44.47;11.13;;;;;;;;;;5051864;28;20127;-69
2024/02/29 16:41:01;;;;;;;59.88;11.50;;;;;;;;;;5051964;28;20044;-68
2024/02/29 16:44:06;;;;;;;42.33;11.43;;;;;;;;;;5051907;28;20048;-67
2024/02/29 16:47:11;;;;;;;57.67;12.15;;;;;;;;;;5051662;28;20036;-70
2024/02/29 16:50:15;;;;;;;47.70;11.70;;;;;;;;;;5051788;28;20140;-69
2024/02/29 16:53:19;;;;;;;60.75;14.70;;;;;;;;;;5051539;28;20052;-70
2024/02/29 16:56:24;;;;;;;52.90;15.77;;;;;;;;;;5051702;28;20043;-68
2024/02/29 16:59:28;;;;;;;47.25;13.23;;;;;;;;;;5051239;28;20397;-66
2024/02/29 17:02:34;;;;;;;46.70;10.57;;;;;;;;;;5051455;28;20044;-67
2024/02/29 17:05:38;;;;;;;48.22;12.05;;;;;;;;;;5051375;28;20127;-68
2024/02/29 17:08:42;;;;;;;43.55;12.80;;;;;;;;;;5049817;28;20389;-67
2024/02/29 17:11:47;;;;;;;53.25;13.27;;;;;;;;;;5051397;28;20044;-67
2024/02/29 17:14:51;;;;;;;58.53;13.05;;;;;;;;;;5050964;28;20338;-67
2024/02/29 17:17:56;;;;;;;37.47;9.88;;;;;;;;;;5048738;28;20056;-70